Time;durP1;ratioP1;P1;durP2;ratioP2;P2;SDS_P1;SDS_P2;PMS_P1;PMS_P2;Temp;Humidity;BMP_temperature;BMP_pressure;BME280_temperature;BME280_humidity;BME280_pressure;Samples;Min_cycle;Max_cycle;Signal;HPM_P1;HPM_P2
2022/08/23 00:01:05;;;;;;;;;0.50;0.50;;;;;23.94;53.62;100782.72;5096567;27;45386;-50
2022/08/23 00:03:30;;;;;;;;;0.00;0.00;;;;;23.91;53.64;100786.94;5096007;27;45322;-51
2022/08/23 00:05:56;;;;;;;;;0.00;0.00;;;;;23.85;53.42;100779.75;5096412;27;45245;-50
2022/08/23 00:08:23;;;;;;;;;0.00;0.00;;;;;23.89;53.59;100785.59;5096595;27;45376;-51
2022/08/23 00:10:48;;;;;;;;;0.00;0.00;;;;;23.86;53.48;100783.41;5096091;27;46503;-54
2022/08/23 00:13:14;;;;;;;;;1.75;1.75;;;;;23.65;53.67;100745.28;5095834;27;45317;-54
2022/08/23 00:15:39;;;;;;;;;0.00;0.00;;;;;23.74;53.89;100755.84;5096094;27;45224;-52
2022/08/23 00:18:05;;;;;;;;;2.00;1.00;;;;;23.82;53.51;100783.16;5096613;27;45228;-51
2022/08/23 00:20:30;;;;;;;;;0.00;0.00;;;;;23.80;53.76;100786.25;5096104;27;45890;-54
2022/08/23 00:22:56;;;;;;;;;1.00;1.00;;;;;23.64;54.42;100762.41;5095574;27;45338;-54
2022/08/23 00:25:21;;;;;;;;;1.00;1.00;;;;;23.78;54.31;100779.28;5095065;27;45308;-50
2022/08/23 00:27:47;;;;;;;;;3.50;2.00;;;;;23.80;53.92;100774.25;5096523;27;45267;-53
2022/08/23 00:30:13;;;;;;;;;1.00;1.00;;;;;23.68;54.07;100746.66;5096328;27;46211;-51
2022/08/23 00:32:38;;;;;;;;;3.60;1.00;;;;;23.77;54.17;100772.03;5095665;27;45312;-52
2022/08/23 00:35:04;;;;;;;;;1.00;1.00;;;;;23.81;53.91;100768.31;5095296;27;45379;-49
2022/08/23 00:37:31;;;;;;;;;0.25;0.25;;;;;23.59;53.91;100740.06;5098739;27;45407;-52
2022/08/23 00:39:57;;;;;;;;;1.00;1.00;;;;;23.81;53.56;100767.50;5118668;27;46357;-52
2022/08/23 00:48:00;;;;;;;;;1.60;1.00;;;;;23.75;54.52;100777.09;5104714;27;45231;-54
2022/08/23 00:50:38;;;;;;;;;1.00;1.00;;;;;23.72;53.98;100777.69;5118986;27;45720;-57
2022/08/23 00:53:24;;;;;;;;;0.00;0.00;;;;;23.68;54.44;100778.31;5101736;27;45924;-54
2022/08/23 00:55:53;;;;;;;;;0.60;0.60;;;;;23.65;54.78;100770.50;5118972;27;45371;-54
2022/08/23 00:58:20;;;;;;;;;0.20;0.20;;;;;23.41;54.58;100745.31;5119344;27;45419;-55
2022/08/23 01:00:46;;;;;;;;;1.00;1.00;;;;;23.40;54.63;100752.91;5120338;27;45490;-53
2022/08/23 01:03:12;;;;;;;;;1.40;0.40;;;;;23.50;55.04;100779.94;5118326;27;45290;-50
2022/08/23 01:05:46;;;;;;;;;0.00;0.00;;;;;23.54;54.94;100781.00;5118858;27;45503;-54
2022/08/23 01:08:11;;;;;;;;;0.80;0.80;;;;;23.63;54.95;100788.75;5118663;27;45418;-49
2022/08/23 01:10:42;;;;;;;;;1.00;1.00;;;;;23.64;54.51;100796.03;5120143;27;45636;-51
2022/08/23 01:13:16;;;;;;;;;0.00;0.00;;;;;23.55;55.22;100779.84;5101057;27;45433;-51
2022/08/23 01:15:46;;;;;;;;;1.00;1.00;;;;;23.47;54.85;100774.91;5102708;27;45436;-50
2022/08/23 01:18:12;;;;;;;;;0.80;0.80;;;;;23.55;55.09;100793.03;5118297;27;45438;-51
2022/08/23 01:20:55;;;;;;;;;1.20;1.00;;;;;23.38;55.32;100777.53;5084323;27;47457;-50
2022/08/23 01:23:56;;;;;;;;;1.60;1.00;;;;;23.52;55.55;100794.47;5117612;27;45388;-51
2022/08/23 01:26:23;;;;;;;;;0.80;0.80;;;;;23.43;55.60;100787.88;5135696;27;45888;-50
2022/08/23 01:28:49;;;;;;;;;1.00;1.00;;;;;23.49;55.57;100786.69;5118149;27;45459;-50
2022/08/23 01:31:15;;;;;;;;;0.40;0.40;;;;;23.57;55.57;100789.94;5119466;27;46542;-51
2022/08/23 01:33:41;;;;;;;;;0.00;0.00;;;;;23.46;55.21;100770.47;5119099;27;45418;-50
2022/08/23 01:36:11;;;;;;;;;1.00;1.00;;;;;23.62;54.83;100793.50;5119318;27;45443;-53
2022/08/23 01:38:36;;;;;;;;;0.00;0.00;;;;;23.50;55.26;100765.94;5114299;27;45391;-53
2022/08/23 01:41:02;;;;;;;;;2.50;1.00;;;;;23.65;55.34;100801.31;5098686;27;46467;-50
2022/08/23 01:43:27;;;;;;;;;0.00;0.00;;;;;23.44;55.09;100758.72;5096584;27;45322;-52
2022/08/23 01:45:53;;;;;;;;;0.00;0.00;;;;;23.56;55.44;100789.09;5096870;27;45327;-50
2022/08/23 01:48:19;;;;;;;;;0.00;0.00;;;;;23.60;55.09;100792.13;5097264;27;45438;-49
2022/08/23 01:50:44;;;;;;;;;0.00;0.00;;;;;23.44;55.19;100763.47;5098478;27;46549;-53
2022/08/23 01:53:10;;;;;;;;;0.00;0.00;;;;;23.48;55.15;100789.78;5096717;27;45479;-54
2022/08/23 01:55:35;;;;;;;;;0.00;0.00;;;;;23.44;55.38;100780.28;5098346;27;45347;-49
2022/08/23 01:58:01;;;;;;;;;2.25;0.50;;;;;23.51;55.70;100786.34;5097294;27;45351;-51
2022/08/23 02:00:30;;;;;;;;;0.00;0.00;;;;;23.51;55.19;100783.56;5096463;27;45995;-50
2022/08/23 02:02:56;;;;;;;;;1.20;0.20;;;;;23.51;55.33;100786.34;5098297;27;45378;-49
2022/08/23 02:05:22;;;;;;;;;0.00;0.00;;;;;23.50;55.72;100782.75;5097122;27;45816;-53
2022/08/23 02:07:47;;;;;;;;;0.00;0.00;;;;;23.49;55.84;100789.47;5077128;27;45788;-51
2022/08/23 02:10:13;;;;;;;;;0.00;0.00;;;;;23.33;55.24;100763.63;5118618;27;45390;-53
2022/08/23 02:12:38;;;;;;;;;0.50;0.50;;;;;23.44;55.54;100794.28;5118427;27;45407;-50
2022/08/23 02:15:04;;;;;;;;;1.00;1.00;;;;;23.41;55.92;100799.38;5118742;27;45323;-49
2022/08/23 02:17:30;;;;;;;;;0.00;0.00;;;;;23.17;55.89;100765.72;5118697;27;45486;-55
2022/08/23 02:19:55;;;;;;;;;0.00;0.00;;;;;23.35;55.76;100786.56;5118308;27;46487;-54
2022/08/23 02:22:21;;;;;;;;;0.00;0.00;;;;;23.14;56.25;100767.16;5118398;27;45841;-49
2022/08/23 02:24:47;;;;;;;;;0.00;0.00;;;;;23.32;56.11;100795.53;5118213;27;45424;-52
2022/08/23 02:27:15;;;;;;;;;0.80;0.80;;;;;23.22;56.28;100776.84;5117980;27;45331;-50
2022/08/23 02:29:43;;;;;;;;;1.00;1.00;;;;;23.33;56.25;100796.38;5100234;27;46757;-49
2022/08/23 02:32:09;;;;;;;;;0.00;0.00;;;;;23.34;56.19;100798.88;5118352;27;45354;-50
2022/08/23 02:34:35;;;;;;;;;1.60;1.60;;;;;23.14;56.83;100786.75;5118521;27;45520;-50
2022/08/23 02:37:00;;;;;;;;;0.00;0.00;;;;;23.19;56.43;100796.22;5118793;27;45394;-50
2022/08/23 02:39:26;;;;;;;;;0.00;0.00;;;;;23.04;56.39;100777.63;5109690;27;45793;-52
2022/08/23 02:41:52;;;;;;;;;0.75;0.75;;;;;23.08;56.62;100773.94;5097585;27;45823;-50
2022/08/23 02:44:18;;;;;;;;;0.00;0.00;;;;;23.29;56.70;100799.75;5098052;27;45411;-50
2022/08/23 02:46:44;;;;;;;;;0.00;0.00;;;;;23.14;56.47;100764.38;5113609;27;45627;-52
2022/08/23 02:49:10;;;;;;;;;1.00;1.00;;;;;23.26;56.42;100789.13;5096416;27;47285;-52
2022/08/23 02:51:35;;;;;;;;;0.00;0.00;;;;;23.24;56.07;100774.63;5079430;27;45743;-51
2022/08/23 02:54:01;;;;;;;;;1.00;1.00;;;;;23.41;55.93;100795.72;5096571;27;45934;-51
2022/08/23 02:56:27;;;;;;;;;0.50;0.50;;;;;23.42;56.03;100803.81;5097561;27;45517;-49
2022/08/23 02:58:52;;;;;;;;;1.00;1.00;;;;;23.47;56.28;100799.31;5112278;27;45362;-50
2022/08/23 03:01:19;;;;;;;;;3.00;0.00;;;;;23.33;55.84;100786.03;5097756;27;45427;-50
2022/08/23 03:03:44;;;;;;;;;1.00;1.00;;;;;23.45;56.10;100807.16;5097666;27;45499;-50
2022/08/23 03:06:11;;;;;;;;;1.00;1.00;;;;;23.29;56.72;100805.34;5097242;27;45540;-50
2022/08/23 03:08:37;;;;;;;;;1.00;1.00;;;;;23.25;56.69;100783.81;5097474;27;46526;-49
2022/08/23 03:11:10;;;;;;;;;0.00;0.00;;;;;23.27;56.32;100795.59;5096097;27;45420;-50
2022/08/23 03:13:36;;;;;;;;;1.00;1.00;;;;;23.28;56.20;100792.47;5097489;27;45434;-50
2022/08/23 03:16:01;;;;;;;;;1.25;0.75;;;;;23.42;56.73;100808.59;5097469;27;45554;-55
2022/08/23 03:18:27;;;;;;;;;0.00;0.00;;;;;23.42;56.25;100823.44;5078756;27;46345;-51
2022/08/23 03:20:52;;;;;;;;;1.00;1.00;;;;;23.42;56.36;100820.63;5097024;27;45302;-50
2022/08/23 03:23:17;;;;;;;;;1.00;1.00;;;;;23.27;56.24;100792.78;5097072;27;45264;-53
2022/08/23 03:25:43;;;;;;;;;2.00;1.00;;;;;23.38;56.77;100804.72;5096214;27;45416;-52
2022/08/23 03:28:08;;;;;;;;;1.50;1.50;;;;;23.39;56.64;100812.84;5096576;27;46079;-50
2022/08/23 03:30:34;;;;;;;;;1.00;1.00;;;;;23.38;56.91;100815.94;5095732;27;45409;-50
2022/08/23 03:33:00;;;;;;;;;0.75;0.75;;;;;23.35;56.77;100817.34;5097104;27;45428;-53
2022/08/23 03:35:26;;;;;;;;;0.25;0.25;;;;;23.13;56.65;100776.69;5096875;27;45299;-52
2022/08/23 03:37:52;;;;;;;;;1.00;1.00;;;;;23.33;56.74;100805.63;5095825;27;46049;-52
2022/08/23 03:40:19;;;;;;;;;0.40;0.40;;;;;23.34;56.79;100809.25;5110763;27;45305;-50
2022/08/23 03:42:45;;;;;;;;;0.00;0.00;;;;;23.31;57.18;100813.47;5116146;27;45423;-54
2022/08/23 03:45:10;;;;;;;;;2.00;1.00;;;;;23.13;57.23;100787.88;5117045;27;45422;-54
2022/08/23 03:47:36;;;;;;;;;1.00;1.00;;;;;23.12;56.85;100785.38;5117197;27;46449;-50
2022/08/23 03:50:01;;;;;;;;;1.00;1.00;;;;;23.18;57.28;100797.34;5117132;27;45315;-50
2022/08/23 03:52:26;;;;;;;;;0.00;0.00;;;;;23.09;56.96;100795.19;5115451;27;45463;-54
2022/08/23 03:54:52;;;;;;;;;2.50;1.00;;;;;23.23;57.12;100822.50;5117281;27;45429;-52
2022/08/23 03:57:17;;;;;;;;;1.25;1.00;;;;;23.06;57.56;100801.41;5116559;27;45384;-52
2022/08/23 03:59:43;;;;;;;;;1.50;0.50;;;;;23.22;57.09;100830.03;5117351;27;45368;-51
2022/08/23 04:02:08;;;;;;;;;0.00;0.00;;;;;23.22;57.79;100835.63;5116860;27;45343;-53
2022/08/23 04:04:34;;;;;;;;;0.25;0.25;;;;;23.19;57.14;100830.66;5115686;27;45529;-50
2022/08/23 04:07:01;;;;;;;;;1.00;1.00;;;;;23.26;57.63;100845.13;5132627;27;45862;-51
2022/08/23 04:09:27;;;;;;;;;0.40;0.40;;;;;23.26;57.17;100841.50;5114657;27;45758;-49
2022/08/23 04:11:52;;;;;;;;;1.00;1.00;;;;;23.30;56.87;100851.00;5115621;27;45405;-52
2022/08/23 04:14:18;;;;;;;;;1.00;1.00;;;;;23.24;57.18;100841.81;5117010;27;45404;-49
2022/08/23 04:16:43;;;;;;;;;1.00;1.00;;;;;23.27;57.46;100851.56;5116862;27;45731;-50
2022/08/23 04:19:12;;;;;;;;;0.00;0.00;;;;;23.27;57.50;100851.56;5116598;27;45385;-49
2022/08/23 04:21:37;;;;;;;;;1.40;1.40;;;;;23.27;57.17;100854.38;5115329;27;45295;-51
2022/08/23 04:24:03;;;;;;;;;1.00;1.00;;;;;23.08;57.08;100826.28;5116899;27;45425;-51
2022/08/23 04:26:29;;;;;;;;;3.00;1.50;;;;;23.28;57.22;100858.84;5097825;27;46886;-51
2022/08/23 04:28:54;;;;;;;;;0.75;0.75;;;;;22.98;57.59;100814.06;5116801;27;45843;-51
2022/08/23 04:31:20;;;;;;;;;1.00;0.00;;;;;23.06;57.39;100822.94;5116519;27;45775;-50
2022/08/23 04:33:46;;;;;;;;;1.00;1.00;;;;;23.23;57.70;100854.13;5132205;27;45616;-52
2022/08/23 04:36:11;;;;;;;;;2.25;1.00;;;;;23.20;57.37;100856.69;5116265;27;46250;-51
2022/08/23 04:38:37;;;;;;;;;1.00;1.00;;;;;23.20;57.50;100859.50;5116244;27;45403;-48
2022/08/23 04:43:46;;;;;;;;;1.40;1.40;;;;;23.15;57.73;100864.00;5109247;27;45673;-53
2022/08/23 04:46:15;;;;;;;;;1.00;1.00;;;;;23.20;57.20;100873.47;5095502;27;46166;-54
2022/08/23 04:48:43;;;;;;;;;0.40;0.40;;;;;23.15;57.83;100874.34;5095562;27;45418;-49
2022/08/23 04:51:09;;;;;;;;;0.40;0.40;;;;;23.13;57.65;100869.06;5095715;27;45377;-53
2022/08/23 04:53:35;;;;;;;;;1.00;1.00;;;;;23.13;57.75;100874.66;5095898;27;45413;-55
2022/08/23 04:56:02;;;;;;;;;1.75;1.00;;;;;23.07;57.67;100870.25;5094351;27;46562;-51
2022/08/23 04:58:30;;;;;;;;;0.80;0.80;;;;;23.12;57.88;100881.38;5095350;27;45304;-54
2022/08/23 05:00:57;;;;;;;;;2.20;1.00;;;;;23.12;58.05;100884.16;5095380;27;45374;-51
2022/08/23 05:03:23;;;;;;;;;3.40;2.40;;;;;23.06;58.13;100871.38;5096002;27;45567;-52
2022/08/23 05:05:48;;;;;;;;;1.00;1.00;;;;;22.91;58.10;100852.75;5095055;27;45540;-51
2022/08/23 05:08:14;;;;;;;;;2.00;2.00;;;;;23.08;57.81;100885.91;5095608;27;45394;-51
2022/08/23 05:10:40;;;;;;;;;1.40;1.40;;;;;23.05;57.91;100888.44;5095380;27;45906;-53
2022/08/23 05:13:05;;;;;;;;;2.75;2.75;;;;;23.02;58.15;100882.28;5095372;27;45299;-55
2022/08/23 05:15:31;;;;;;;;;1.00;1.00;;;;;23.05;58.23;100883.66;5095309;27;46435;-50
2022/08/23 05:17:56;;;;;;;;;1.75;0.75;;;;;23.08;58.42;100887.84;5095227;27;45314;-49
2022/08/23 05:20:22;;;;;;;;;2.00;2.00;;;;;23.07;57.97;100883.38;5095469;27;45376;-50
2022/08/23 05:22:47;;;;;;;;;2.00;2.00;;;;;23.08;58.19;100885.03;5097552;27;45237;-53
2022/08/23 05:25:13;;;;;;;;;2.00;2.00;;;;;22.95;58.78;100880.97;5098830;27;45449;-53
2022/08/23 05:27:39;;;;;;;;;1.00;1.00;;;;;22.88;58.93;100878.50;5099250;27;45241;-52
2022/08/23 05:30:05;;;;;;;;;2.00;2.00;;;;;22.88;59.05;100884.94;5097437;27;45329;-54
2022/08/23 05:32:31;;;;;;;;;2.00;1.20;;;;;22.90;58.87;100893.06;5099212;27;45557;-52
2022/08/23 05:34:56;;;;;;;;;2.00;2.00;;;;;22.80;58.65;100863.19;5098410;27;46385;-49
2022/08/23 05:37:22;;;;;;;;;0.75;0.75;;;;;22.98;58.48;100888.78;5099064;27;45358;-49
2022/08/23 05:39:47;;;;;;;;;1.00;1.00;;;;;22.98;58.45;100881.22;5098626;27;45431;-51
2022/08/23 05:42:13;;;;;;;;;2.50;2.50;;;;;23.00;58.70;100884.56;5098915;27;45547;-48
2022/08/23 05:44:39;;;;;;;;;3.00;3.00;;;;;23.06;58.41;100896.56;5097510;27;45772;-50
2022/08/23 05:47:05;;;;;;;;;2.00;2.00;;;;;22.91;58.63;100874.28;5098154;27;45301;-51
2022/08/23 05:49:31;;;;;;;;;2.00;2.00;;;;;23.07;58.45;100887.03;5098955;27;45290;-50
2022/08/23 05:51:57;;;;;;;;;1.25;1.25;;;;;23.14;58.13;100886.69;5098524;27;45653;-51
2022/08/23 05:54:22;;;;;;;;;3.75;3.00;;;;;23.03;58.64;100866.34;5098576;27;45817;-49
2022/08/23 05:56:48;;;;;;;;;3.25;2.50;;;;;23.15;58.48;100893.94;5098274;27;45298;-49
2022/08/23 05:59:15;;;;;;;;;3.00;3.00;;;;;23.13;58.43;100887.81;5098205;27;45858;-49
2022/08/23 06:01:41;;;;;;;;;2.40;2.40;;;;;23.12;58.23;100894.53;5114339;27;45439;-50
2022/08/23 06:04:08;;;;;;;;;1.25;1.25;;;;;23.11;58.42;100896.50;5097835;27;46355;-51
2022/08/23 06:06:33;;;;;;;;;1.60;1.60;;;;;23.15;58.58;100891.13;5098334;27;45552;-51
2022/08/23 06:08:59;;;;;;;;;2.25;2.25;;;;;23.11;58.78;100885.28;5098571;27;45365;-52
2022/08/23 06:11:26;;;;;;;;;1.50;1.50;;;;;23.01;58.56;100869.44;5113771;27;45410;-53
2022/08/23 06:13:53;;;;;;;;;2.20;2.20;;;;;23.20;58.49;100898.69;5098319;27;46707;-51
2022/08/23 06:16:22;;;;;;;;;3.40;3.20;;;;;23.20;58.27;100901.47;5098008;27;45355;-51
2022/08/23 06:18:48;;;;;;;;;4.20;3.20;;;;;23.20;58.39;100899.50;5098147;27;45338;-50
2022/08/23 06:21:14;;;;;;;;;2.50;2.25;;;;;23.15;58.53;100900.38;5098244;27;45275;-53
2022/08/23 06:23:40;;;;;;;;;2.50;2.50;;;;;23.13;58.81;100899.84;5097808;27;45445;-51
2022/08/23 06:26:10;;;;;;;;;3.20;2.20;;;;;23.21;58.66;100911.53;5098086;27;45334;-51
2022/08/23 06:28:36;;;;;;;;;4.00;4.00;;;;;23.26;58.30;100911.50;5070587;27;45363;-49
2022/08/23 06:31:01;;;;;;;;;4.00;3.50;;;;;23.28;58.53;100906.44;5098328;27;45206;-50
2022/08/23 06:33:26;;;;;;;;;2.00;2.00;;;;;23.26;58.63;100917.09;5097293;27;45621;-51
2022/08/23 06:36:12;;;;;;;;;2.00;2.00;;;;;23.26;58.69;100919.91;5098158;27;45439;-50
2022/08/23 06:38:38;;;;;;;;;3.80;3.00;;;;;23.27;58.76;100925.19;5096377;27;45476;-50
2022/08/23 06:41:05;;;;;;;;;5.60;3.20;;;;;23.17;58.52;100897.31;5116515;27;45554;-51
2022/08/23 06:43:31;;;;;;;;;2.00;2.00;;;;;23.27;58.71;100921.56;5116844;27;46728;-53
2022/08/23 06:46:26;;;;;;;;;2.00;2.00;;;;;23.31;58.56;100922.66;5118455;27;45315;-49
2022/08/23 06:48:52;;;;;;;;;3.60;2.60;;;;;23.08;58.46;100885.91;5117080;27;45549;-52
2022/08/23 06:51:22;;;;;;;;;2.00;2.00;;;;;23.19;58.29;100896.97;5118596;27;45481;-51
2022/08/23 06:53:48;;;;;;;;;2.20;2.20;;;;;23.37;58.05;100929.06;5118130;27;45994;-53
2022/08/23 06:56:13;;;;;;;;;4.00;4.00;;;;;23.35;58.29;100923.75;5118192;27;45362;-51
2022/08/23 06:58:39;;;;;;;;;3.25;3.25;;;;;23.33;58.49;100922.38;5118267;27;45444;-50
2022/08/23 07:01:51;;;;;;;;;3.00;3.00;;;;;23.26;58.58;100923.53;5118394;27;45383;-50
2022/08/23 07:04:21;;;;;;;;;3.60;3.60;;;;;23.35;58.47;100934.97;5107055;27;46554;-50
2022/08/23 07:06:46;;;;;;;;;4.60;3.00;;;;;23.40;58.14;100929.31;5117817;27;45385;-50
2022/08/23 07:09:12;;;;;;;;;2.75;2.75;;;;;23.46;58.36;100930.09;5118611;27;45337;-51
2022/08/23 07:11:38;;;;;;;;;4.00;3.00;;;;;23.50;58.22;100942.38;5117964;27;45158;-49
2022/08/23 07:14:05;;;;;;;;;3.80;3.80;;;;;23.53;57.91;100929.75;5117853;27;46644;-49
2022/08/23 07:16:34;;;;;;;;;3.20;3.20;;;;;23.54;58.27;100939.81;5117738;27;45475;-50
2022/08/23 07:18:59;;;;;;;;;3.40;3.40;;;;;23.59;58.15;100939.78;5118080;27;45429;-49
2022/08/23 07:21:25;;;;;;;;;2.00;2.00;;;;;23.45;58.25;100925.63;5117886;27;45612;-48
2022/08/23 07:23:50;;;;;;;;;3.25;3.25;;;;;23.65;58.60;100949.78;5117395;27;45598;-47
2022/08/23 07:26:16;;;;;;;;;9.50;8.50;;;;;23.69;58.39;100939.66;5118209;27;45334;-48
2022/08/23 07:28:42;;;;;;;;;4.00;4.00;;;;;23.76;58.58;100944.06;5118018;27;45331;-50
2022/08/23 07:31:09;;;;;;;;;6.75;5.25;;;;;23.83;58.74;100950.16;5118307;27;45304;-50
2022/08/23 07:33:36;;;;;;;;;4.00;2.40;;;;;23.90;57.89;100950.63;5117750;27;45318;-50
2022/08/23 07:36:04;;;;;;;;;3.80;3.80;;;;;24.01;58.41;100950.53;5116738;27;45417;-47
2022/08/23 07:38:30;;;;;;;;;4.00;4.00;;;;;24.03;57.81;100921.06;5117848;27;45800;-51
2022/08/23 07:40:56;;;;;;;;;2.00;2.00;;;;;24.30;58.05;100955.25;5112721;27;45574;-50
2022/08/23 07:43:22;;;;;;;;;2.60;2.60;;;;;24.45;57.52;100957.03;5112385;27;47334;-49
2022/08/23 07:45:47;;;;;;;;;3.00;3.00;;;;;24.25;57.92;100916.88;5111896;27;45378;-48
2022/08/23 07:48:13;;;;;;;;;2.50;2.00;;;;;24.45;57.45;100951.41;5095690;27;45634;-50
2022/08/23 07:50:39;;;;;;;;;6.00;5.00;;;;;24.35;57.35;100949.56;5097339;27;45659;-51
2022/08/23 07:53:08;;;;;;;;;5.60;5.00;;;;;24.31;57.98;100959.72;5096014;27;46956;-52
2022/08/23 07:55:33;;;;;;;;;4.40;3.00;;;;;24.35;58.15;100960.78;5096767;27;45500;-51
2022/08/23 07:57:59;;;;;;;;;3.00;3.00;;;;;24.29;57.86;100942.38;5096699;27;45383;-50
2022/08/23 08:00:25;;;;;;;;;4.25;4.00;;;;;24.45;58.38;100966.25;5072664;27;45478;-52
2022/08/23 08:02:51;;;;;;;;;2.60;1.80;;;;;24.45;57.68;100965.44;5091280;27;45982;-53
2022/08/23 08:05:17;;;;;;;;;2.00;2.00;;;;;24.47;58.01;100954.72;5093340;27;45681;-51
2022/08/23 08:07:42;;;;;;;;;2.75;2.75;;;;;24.58;57.51;100975.06;5095058;27;45516;-53
2022/08/23 08:10:08;;;;;;;;;4.25;3.00;;;;;24.43;57.19;100937.69;5102824;27;45357;-49
2022/08/23 08:12:33;;;;;;;;;5.00;4.00;;;;;24.49;57.57;100964.53;5091903;27;46856;-50
2022/08/23 08:14:59;;;;;;;;;2.75;1.50;;;;;24.51;57.92;100969.84;5071993;27;45856;-52
2022/08/23 08:17:24;;;;;;;;;4.00;4.00;;;;;24.40;57.39;100943.06;5084815;27;45927;-54
2022/08/23 08:19:50;;;;;;;;;5.00;4.00;;;;;24.42;57.76;100949.19;5095319;27;45541;-53
2022/08/23 08:22:15;;;;;;;;;3.75;2.25;;;;;24.68;57.26;100968.47;5102089;27;45443;-53
2022/08/23 08:24:41;;;;;;;;;4.25;3.00;;;;;24.74;56.95;100968.09;5092260;27;45597;-50
2022/08/23 08:27:07;;;;;;;;;3.25;3.25;;;;;24.62;57.09;100948.09;5091970;27;45421;-49
2022/08/23 08:29:33;;;;;;;;;4.20;4.20;;;;;24.80;56.65;100966.09;5098278;27;45455;-48
2022/08/23 08:31:59;;;;;;;;;4.00;4.00;;;;;24.80;56.97;100952.06;5111835;27;45438;-49
2022/08/23 08:34:24;;;;;;;;;3.75;3.75;;;;;24.97;56.88;100985.19;5105511;27;45464;-53
2022/08/23 08:36:52;;;;;;;;;3.00;3.00;;;;;24.92;56.76;100973.22;5128930;27;45702;-51
2022/08/23 08:39:26;;;;;;;;;4.40;4.40;;;;;24.92;56.69;100957.22;5108862;27;45410;-50
2022/08/23 08:42:19;;;;;;;;;3.00;3.00;;;;;25.22;56.21;100982.28;5090898;27;46713;-50
2022/08/23 08:44:55;;;;;;;;;5.80;4.80;;;;;25.33;56.44;100989.41;5095774;27;45793;-54
2022/08/23 08:48:08;;;;;;;;;4.80;3.80;;;;;25.36;55.32;100974.75;5090624;27;45510;-49
2022/08/23 08:50:55;;;;;;;;;4.40;3.40;;;;;25.40;55.57;100986.22;5078416;27;45854;-51
2022/08/23 08:53:28;;;;;;;;;2.40;2.40;;;;;25.40;54.99;100966.53;5090121;27;46438;-52
2022/08/23 08:55:58;;;;;;;;;4.00;4.00;;;;;25.58;54.88;100970.47;5091045;27;45447;-50
2022/08/23 08:58:40;;;;;;;;;3.60;2.40;;;;;25.55;54.66;100963.50;5112627;27;45923;-54
2022/08/23 09:01:06;;;;;;;;;4.20;2.00;;;;;25.64;54.18;100988.06;5089336;27;46772;-55
2022/08/23 09:03:32;;;;;;;;;4.20;3.20;;;;;25.62;53.69;100985.56;5115675;27;45829;-50
2022/08/23 09:06:13;;;;;;;;;3.00;3.00;;;;;25.37;54.57;100969.97;5097423;27;45364;-50
2022/08/23 09:09:07;;;;;;;;;3.60;2.20;;;;;25.54;55.25;100997.50;5116037;27;45791;-52
2022/08/23 09:11:57;;;;;;;;;5.40;4.40;;;;;25.62;54.63;100993.16;5078072;27;45493;-49
2022/08/23 09:14:42;;;;;;;;;4.00;3.00;;;;;25.53;54.71;100988.25;5093707;27;46556;-49
2022/08/23 09:17:13;;;;;;;;;6.40;4.80;;;;;25.46;54.67;100970.94;5102707;27;45450;-51
2022/08/23 09:19:39;;;;;;;;;5.20;4.20;;;;;25.58;54.53;100979.75;5115303;27;45436;-50
2022/08/23 09:22:12;;;;;;;;;8.25;7.00;;;;;25.73;54.36;100985.38;5112048;27;45607;-49
2022/08/23 09:24:37;;;;;;;;;3.80;3.80;;;;;25.82;53.93;100981.53;5093849;27;45490;-52
2022/08/23 09:27:03;;;;;;;;;4.00;3.00;;;;;25.87;54.11;100980.59;5094923;27;45533;-51
2022/08/23 09:29:33;;;;;;;;;4.00;4.00;;;;;25.95;53.95;100988.34;5095032;27;45793;-51
2022/08/23 09:32:04;;;;;;;;;3.20;3.20;;;;;26.07;53.61;100998.22;5110840;27;45875;-53
2022/08/23 09:34:36;;;;;;;;;4.00;3.00;;;;;26.13;53.77;100994.16;5092562;27;46790;-50
2022/08/23 09:37:10;;;;;;;;;5.80;4.20;;;;;26.07;53.78;100992.59;5094875;27;45481;-51
2022/08/23 09:39:37;;;;;;;;;2.20;2.20;;;;;26.16;53.83;100990.75;5098377;27;45391;-50
2022/08/23 09:42:03;;;;;;;;;3.00;3.00;;;;;26.19;53.49;100989.28;5113879;27;45481;-55
2022/08/23 09:44:38;;;;;;;;;2.25;2.00;;;;;26.08;53.55;100968.94;5129335;27;45881;-54
2022/08/23 09:47:15;;;;;;;;;5.00;4.00;;;;;26.25;53.03;100990.88;5106576;27;45539;-53
2022/08/23 09:49:46;;;;;;;;;3.80;3.00;;;;;26.17;53.29;100988.75;5094434;27;45805;-51
2022/08/23 09:52:24;;;;;;;;;2.80;2.80;;;;;26.20;52.86;100993.75;5096389;27;45515;-55
2022/08/23 09:54:54;;;;;;;;;1.80;1.80;;;;;26.18;53.42;100996.03;5093044;27;45540;-48
2022/08/23 09:57:27;;;;;;;;;3.20;3.20;;;;;26.26;53.23;100984.09;5107308;27;45394;-49
2022/08/23 09:59:55;;;;;;;;;1.60;1.60;;;;;26.48;52.80;100999.38;5112313;27;45536;-51
2022/08/23 10:02:20;;;;;;;;;3.00;3.00;;;;;26.52;52.72;100994.81;5100167;27;46201;-48
2022/08/23 10:04:58;;;;;;;;;1.25;1.25;;;;;26.39;52.63;100966.38;5114770;27;46732;-54
2022/08/23 10:07:33;;;;;;;;;3.20;2.00;;;;;26.46;52.67;100982.00;5114454;27;45453;-52
2022/08/23 10:10:37;;;;;;;;;4.20;3.00;;;;;26.39;52.76;100986.06;5113583;27;45439;-52
2022/08/23 10:13:04;;;;;;;;;2.60;2.00;;;;;26.30;52.86;100981.50;5114804;27;45438;-51
2022/08/23 10:15:44;;;;;;;;;4.00;3.00;;;;;26.14;53.58;100973.31;5089400;27;45834;-52
2022/08/23 10:18:14;;;;;;;;;4.00;3.20;;;;;26.08;53.82;100966.97;5097785;27;45362;-52
2022/08/23 10:20:49;;;;;;;;;3.40;2.00;;;;;26.04;54.07;100973.53;5113503;27;45463;-53
2022/08/23 10:23:47;;;;;;;;;5.00;1.00;;;;;26.12;53.87;100970.84;5109015;27;45509;-52
2022/08/23 10:26:23;;;;;;;;;3.60;2.00;;;;;26.20;53.92;100968.44;5092421;27;45963;-55
2022/08/23 10:32:02;;;;;;;;;2.40;2.40;;;;;26.33;53.11;100950.75;5092464;27;45436;-48
2022/08/23 10:34:44;;;;;;;;;1.00;1.00;;;;;26.39;53.09;100946.69;5092974;27;45647;-50
2022/08/23 10:37:16;;;;;;;;;2.00;2.00;;;;;26.61;53.30;100961.09;5092903;27;46602;-51
2022/08/23 10:39:48;;;;;;;;;3.00;3.00;;;;;26.68;53.28;100961.50;5095910;27;45460;-51
2022/08/23 10:42:18;;;;;;;;;3.40;2.20;;;;;26.59;52.89;100955.81;5096097;27;45414;-52
2022/08/23 10:44:49;;;;;;;;;3.60;3.60;;;;;26.38;53.08;100928.13;5114455;27;45797;-48
2022/08/23 10:47:36;;;;;;;;;1.60;1.60;;;;;26.41;53.13;100925.84;5093225;27;47228;-49
2022/08/23 10:50:18;;;;;;;;;5.00;5.00;;;;;26.65;52.83;100948.91;5092852;27;45516;-52
2022/08/23 10:52:53;;;;;;;;;1.80;1.80;;;;;26.66;52.56;100959.03;5092010;27;45491;-51
2022/08/23 10:55:38;;;;;;;;;3.00;2.00;;;;;26.82;51.96;100947.41;5109839;27;45392;-54
2022/08/23 10:58:07;;;;;;;;;2.00;2.00;;;;;27.06;52.00;100951.94;5110781;27;46714;-50
2022/08/23 11:00:33;;;;;;;;;3.20;1.20;;;;;27.06;51.13;100943.47;5093656;27;45507;-51
2022/08/23 11:03:21;;;;;;;;;1.00;1.00;;;;;26.94;51.19;100949.66;5089614;27;45740;-55
2022/08/23 11:06:25;;;;;;;;;2.40;0.80;;;;;27.02;50.84;100951.75;5092280;27;45535;-52
2022/08/23 11:08:58;;;;;;;;;0.80;0.80;;;;;27.03;51.10;100949.75;5093488;27;45878;-57
2022/08/23 11:11:39;;;;;;;;;0.00;0.00;;;;;27.02;49.86;100948.94;5090808;27;45474;-53
2022/08/23 11:14:07;;;;;;;;;0.60;0.60;;;;;27.05;50.03;100956.72;5092860;27;45783;-57
2022/08/23 11:16:33;;;;;;;;;0.00;0.00;;;;;27.07;49.59;100936.69;5059154;27;45638;-54
2022/08/23 11:18:58;;;;;;;;;1.00;1.00;;;;;27.04;49.47;100921.25;5105423;27;45817;-54
2022/08/23 11:21:23;;;;;;;;;2.00;2.00;;;;;27.10;50.05;100923.97;5091943;27;45429;-54
2022/08/23 11:23:58;;;;;;;;;1.50;1.50;;;;;27.28;48.98;100947.44;5092545;27;45761;-57
2022/08/23 11:26:27;;;;;;;;;1.00;1.00;;;;;27.37;49.11;100941.88;5091377;27;45424;-59
2022/08/23 11:28:58;;;;;;;;;0.60;0.60;;;;;27.44;49.18;100939.41;5092967;27;46264;-52
2022/08/23 11:31:47;;;;;;;;;1.00;1.00;;;;;27.64;48.79;100929.59;5090820;27;45790;-57
2022/08/23 11:34:29;;;;;;;;;0.80;0.80;;;;;27.85;47.89;100912.13;5091397;27;45424;-54
2022/08/23 11:37:20;;;;;;;;;0.00;0.00;;;;;28.24;47.06;100941.47;5091116;27;45569;-55
2022/08/23 11:39:56;;;;;;;;;1.00;1.00;;;;;28.40;46.79;100941.00;5093467;27;47496;-53
2022/08/23 11:42:21;;;;;;;;;0.00;0.00;;;;;28.59;45.27;100943.50;5112482;27;45781;-55
2022/08/23 11:44:47;;;;;;;;;2.00;1.00;;;;;28.33;45.24;100918.09;5113518;27;45418;-55